Starkweather, North Dakota
Current Conditions -  °F | °C
As of 8:35 AM on Tuesday 21 Oct 2014 (Local Time) from K9D7 Reporting Station
Clear Clear  
Wind Chill: 39°   Ceiling: Unl
Heat Index: 45°   Visibility: 10mi
Dew Point: 39°   Wind: 10mph
Humidity: 81%   Direction: 140°SE
Pressure: 29.91"   Gusts: NA
Location:  48.45°N, 98.88°W
Report Text: K9D7 211335Z AUTO 14009KT 10SM CLR 07/04 A2991 RMK AO2
Loading
Personal Weather Stations






























Interactive Weather Map New forecast layout! Learn more

10-Day Weather Forecast

Advertisements
Track Severe Weather on mobile